createdAt,value
2018-06-16T00:00:19.793Z,47.50
2018-06-16T00:02:48.718Z,47.50
2018-06-16T00:05:17.619Z,47.60
2018-06-16T00:07:46.498Z,48.00
2018-06-16T00:10:15.344Z,48.00
2018-06-16T00:12:44.221Z,47.90
2018-06-16T00:15:13.105Z,47.80
2018-06-16T00:17:41.980Z,48.10
2018-06-16T00:20:10.930Z,48.40
2018-06-16T00:22:39.989Z,48.40
2018-06-16T00:25:08.857Z,48.70
2018-06-16T00:27:37.728Z,48.80
2018-06-16T00:30:06.591Z,48.60
2018-06-16T00:32:35.479Z,48.50
2018-06-16T00:35:04.662Z,48.40
2018-06-16T00:37:33.603Z,48.50
2018-06-16T00:40:02.493Z,48.60
2018-06-16T00:42:31.352Z,48.50
2018-06-16T00:45:00.253Z,48.60
2018-06-16T00:47:29.148Z,48.50
2018-06-16T00:49:58.059Z,48.50
2018-06-16T00:52:27.022Z,48.50
2018-06-16T00:54:55.844Z,48.50
2018-06-16T00:57:36.053Z,48.40
2018-06-16T01:00:04.945Z,48.50
2018-06-16T01:02:33.787Z,48.40
2018-06-16T01:05:02.643Z,48.40
2018-06-16T01:07:31.480Z,48.40
2018-06-16T01:10:00.324Z,48.40
2018-06-16T01:12:29.274Z,48.40
2018-06-16T01:14:58.175Z,49.00
2018-06-16T01:17:27.016Z,48.30
2018-06-16T01:19:57.333Z,48.40
2018-06-16T01:22:26.219Z,48.50
2018-06-16T01:24:55.191Z,48.40
2018-06-16T01:27:24.067Z,48.40
2018-06-16T01:29:53.001Z,48.60
2018-06-16T01:32:21.921Z,48.60
2018-06-16T01:34:50.779Z,48.50
2018-06-16T01:37:19.814Z,48.50
2018-06-16T01:39:48.999Z,48.50
2018-06-16T01:42:18.088Z,48.50
2018-06-16T01:44:46.996Z,48.60
2018-06-16T01:47:15.890Z,48.50
2018-06-16T01:49:44.758Z,48.50
2018-06-16T01:52:13.617Z,48.50
2018-06-16T01:54:42.477Z,48.50
2018-06-16T01:57:11.405Z,48.80
2018-06-16T01:59:40.288Z,49.00
2018-06-16T02:02:09.149Z,49.30
2018-06-16T02:04:38.003Z,49.50
2018-06-16T02:07:06.867Z,49.30
2018-06-16T02:09:35.757Z,49.50
2018-06-16T02:12:04.701Z,49.70
2018-06-16T02:14:33.552Z,49.60
2018-06-16T02:17:02.427Z,49.70
2018-06-16T02:19:31.266Z,49.80
2018-06-16T02:22:00.165Z,49.90
2018-06-16T02:24:29.042Z,50.00
2018-06-16T02:26:57.998Z,50.10
2018-06-16T02:29:26.923Z,50.50
2018-06-16T02:31:55.731Z,50.70
2018-06-16T02:34:24.693Z,50.40
2018-06-16T02:36:53.672Z,50.30
2018-06-16T02:39:22.568Z,50.70
2018-06-16T02:41:51.513Z,50.50
2018-06-16T02:44:20.389Z,50.30
2018-06-16T02:46:49.236Z,50.30
2018-06-16T02:49:18.113Z,50.40
2018-06-16T02:51:46.985Z,50.20
2018-06-16T02:54:15.843Z,50.10
2018-06-16T02:59:13.307Z,49.90
2018-06-16T03:01:42.216Z,49.80
2018-06-16T03:04:11.130Z,49.80
2018-06-16T03:09:09.503Z,49.80
2018-06-16T03:11:38.507Z,49.80
2018-06-16T03:14:07.389Z,49.70
2018-06-16T03:16:36.301Z,49.80
2018-06-16T03:19:05.159Z,49.80
2018-06-16T03:21:34.029Z,49.80
2018-06-16T03:24:02.885Z,49.80
2018-06-16T03:26:31.806Z,49.80
2018-06-16T03:29:00.674Z,49.80
2018-06-16T03:31:29.656Z,49.80
2018-06-16T03:33:58.532Z,49.80
2018-06-16T03:36:27.437Z,49.90
2018-06-16T03:38:56.279Z,50.00
2018-06-16T03:41:25.220Z,50.10
2018-06-16T03:43:54.141Z,50.20
2018-06-16T03:46:23.004Z,50.20
2018-06-16T03:48:51.853Z,50.10
2018-06-16T03:51:20.713Z,50.20
2018-06-16T03:53:49.601Z,50.20
2018-06-16T03:56:18.476Z,50.20
2018-06-16T03:58:47.372Z,50.70
2018-06-16T04:01:16.254Z,50.60
2018-06-16T04:03:45.109Z,50.50
2018-06-16T04:06:13.908Z,50.40
2018-06-16T04:08:42.750Z,50.40
2018-06-16T04:11:11.641Z,50.40
2018-06-16T04:13:40.537Z,50.40
2018-06-16T04:16:09.383Z,50.40
2018-06-16T04:18:38.695Z,50.30
2018-06-16T04:21:07.517Z,50.30
2018-06-16T04:23:36.380Z,50.30
2018-06-16T04:26:05.600Z,50.30
2018-06-16T04:28:34.712Z,50.40
2018-06-16T04:31:04.543Z,50.30
2018-06-16T04:33:34.433Z,50.30
2018-06-16T04:36:03.309Z,50.30
2018-06-16T04:38:32.184Z,50.30
2018-06-16T04:41:01.126Z,50.20
2018-06-16T04:43:31.214Z,50.20
2018-06-16T04:46:00.140Z,50.20
2018-06-16T04:48:29.163Z,50.20
2018-06-16T04:50:58.037Z,50.40
2018-06-16T04:53:26.871Z,50.40
2018-06-16T04:55:55.739Z,50.40
2018-06-16T04:58:24.793Z,50.30
2018-06-16T05:00:53.704Z,50.30
2018-06-16T05:03:23.567Z,50.40
2018-06-16T05:05:52.519Z,50.50
2018-06-16T05:08:21.471Z,51.40
2018-06-16T05:10:50.406Z,52.00
2018-06-16T05:13:19.293Z,51.60
2018-06-16T05:15:48.186Z,52.20
2018-06-16T05:18:18.121Z,52.90
2018-06-16T05:20:47.015Z,52.90
2018-06-16T05:23:15.933Z,52.80
2018-06-16T05:25:44.903Z,52.50
2018-06-16T05:28:13.704Z,52.70
2018-06-16T05:30:42.600Z,53.30
2018-06-16T05:33:18.637Z,52.90
2018-06-16T05:35:48.176Z,52.40
2018-06-16T05:38:17.768Z,52.10
2018-06-16T05:40:46.787Z,52.10
2018-06-16T05:43:16.796Z,52.40
2018-06-16T05:45:46.269Z,52.50
2018-06-16T05:48:16.327Z,52.30
2018-06-16T05:50:45.268Z,52.40
2018-06-16T05:53:14.163Z,52.20
2018-06-16T05:55:44.103Z,52.00
2018-06-16T05:58:13.395Z,52.00
2018-06-16T06:00:42.774Z,51.90
2018-06-16T06:03:12.713Z,51.80
2018-06-16T06:05:42.927Z,51.90
2018-06-16T06:08:11.862Z,52.10
2018-06-16T06:10:41.831Z,52.20
2018-06-16T06:13:10.766Z,52.60
2018-06-16T06:15:39.669Z,52.40
2018-06-16T06:18:10.328Z,52.60
2018-06-16T06:20:39.196Z,52.70
2018-06-16T06:23:08.085Z,52.50
2018-06-16T06:25:37.620Z,52.30
2018-06-16T06:30:35.377Z,52.50
2018-06-16T06:33:04.982Z,52.20
2018-06-16T06:35:34.016Z,52.10
2018-06-16T06:38:04.884Z,52.10
2018-06-16T06:40:34.974Z,52.00
2018-06-16T06:43:07.205Z,52.00
2018-06-16T06:45:37.856Z,52.50
2018-06-16T06:48:08.136Z,52.30
2018-06-16T06:50:39.126Z,52.50
2018-06-16T06:53:09.022Z,52.90
2018-06-16T06:55:39.170Z,52.60
2018-06-16T06:58:10.313Z,53.00
2018-06-16T07:01:24.476Z,52.70
2018-06-16T07:03:53.842Z,52.80
2018-06-16T07:06:23.548Z,53.00
2018-06-16T07:08:53.895Z,53.00
2018-06-16T07:11:26.193Z,52.50
2018-06-16T07:24:41.455Z,51.80
2018-06-16T07:46:39.089Z,52.00
2018-06-16T07:49:17.935Z,51.40
2018-06-16T07:51:48.976Z,51.90
2018-06-16T07:54:19.690Z,52.60
2018-06-16T07:56:50.122Z,52.30
2018-06-16T07:59:20.901Z,52.50
2018-06-16T08:02:33.201Z,52.20
2018-06-16T08:44:46.110Z,50.80
2018-06-16T08:47:15.743Z,46.50
2018-06-16T08:49:45.528Z,45.90
2018-06-16T08:52:15.478Z,45.50
2018-06-16T08:54:44.476Z,44.90
2018-06-16T08:57:13.408Z,44.50
2018-06-16T08:59:42.421Z,44.20
2018-06-16T09:02:11.426Z,44.00
2018-06-16T09:04:40.372Z,43.40
2018-06-16T09:07:10.000Z,43.10
2018-06-16T09:09:38.908Z,43.00
2018-06-16T09:12:07.917Z,42.70
2018-06-16T09:14:36.871Z,42.60
2018-06-16T09:17:05.827Z,42.40
2018-06-16T09:19:34.692Z,42.20
2018-06-16T09:22:04.524Z,42.00
2018-06-16T09:24:33.542Z,41.90
2018-06-16T09:27:19.275Z,41.80
2018-06-16T09:29:52.251Z,41.70
2018-06-16T09:32:21.629Z,41.60
2018-06-16T09:34:50.475Z,41.60
2018-06-16T09:37:22.898Z,41.60
2018-06-16T09:39:52.693Z,41.70
2018-06-16T09:42:21.636Z,41.70
2018-06-16T09:44:50.518Z,41.70
2018-06-16T09:47:19.430Z,41.60
2018-06-16T09:49:48.521Z,41.30
2018-06-16T09:52:18.690Z,41.20
2018-06-16T09:54:47.587Z,41.40
2018-06-16T09:57:17.526Z,42.00
2018-06-16T09:59:46.509Z,41.50
2018-06-16T10:02:15.506Z,41.70
2018-06-16T10:04:44.386Z,41.60
2018-06-16T10:07:13.255Z,40.80
2018-06-16T10:09:42.113Z,40.10
2018-06-16T10:12:11.018Z,40.20
2018-06-16T10:14:39.993Z,40.00
2018-06-16T10:17:08.856Z,39.80
2018-06-16T10:19:37.749Z,39.70
2018-06-16T10:22:08.566Z,39.70
2018-06-16T10:24:37.771Z,39.50
2018-06-16T10:27:07.579Z,39.70
2018-06-16T10:31:37.158Z,39.60
2018-06-16T10:37:28.396Z,38.50
2018-06-16T10:39:57.432Z,37.60
2018-06-16T10:42:26.575Z,37.80
2018-06-16T10:44:59.831Z,38.20
2018-06-16T10:48:26.301Z,38.30
2018-06-16T10:51:00.513Z,38.10
2018-06-16T10:55:26.819Z,37.90
2018-06-16T10:58:04.165Z,37.50
2018-06-16T11:07:41.996Z,37.00
2018-06-16T11:55:32.244Z,37.20
2018-06-16T11:58:01.203Z,38.80
2018-06-16T12:00:30.044Z,38.20
2018-06-16T12:02:58.950Z,38.30
2018-06-16T12:05:27.976Z,38.20
2018-06-16T12:07:57.023Z,38.30
2018-06-16T12:10:25.859Z,38.20
2018-06-16T12:12:54.797Z,38.50
2018-06-16T12:15:23.691Z,38.20
2018-06-16T12:17:52.547Z,38.00
2018-06-16T12:20:22.328Z,38.10
2018-06-16T12:22:52.482Z,38.00
2018-06-16T12:25:23.214Z,37.80
2018-06-16T12:27:52.174Z,38.00
2018-06-16T12:30:21.906Z,38.00
2018-06-16T12:32:51.754Z,37.90
2018-06-16T12:35:20.660Z,37.60
2018-06-16T12:37:49.547Z,37.40
2018-06-16T12:40:18.668Z,36.70
2018-06-16T12:42:48.364Z,35.70
2018-06-16T12:45:18.317Z,36.90
2018-06-16T12:47:47.370Z,36.70
2018-06-16T12:50:16.456Z,36.80
2018-06-16T12:52:45.411Z,36.40
2018-06-16T12:55:14.346Z,37.40
2018-06-16T12:57:43.272Z,36.70
2018-06-16T13:00:12.170Z,36.40
2018-06-16T13:02:41.049Z,36.40
2018-06-16T13:05:10.266Z,36.30
2018-06-16T13:07:39.220Z,36.20
2018-06-16T13:10:12.540Z,36.60
2018-06-16T13:12:41.530Z,36.70
2018-06-16T13:15:10.921Z,36.60
2018-06-16T13:17:41.690Z,36.60
2018-06-16T13:20:10.828Z,36.40
2018-06-16T13:22:40.386Z,36.40
2018-06-16T13:25:09.305Z,36.40
2018-06-16T13:27:41.549Z,36.20
2018-06-16T13:30:10.397Z,36.00
2018-06-16T13:32:39.990Z,36.00
2018-06-16T13:35:10.694Z,35.80
2018-06-16T13:37:39.547Z,35.70
2018-06-16T13:40:08.636Z,35.80
2018-06-16T13:42:38.444Z,35.70
2018-06-16T13:45:08.823Z,35.70
2018-06-16T13:47:37.724Z,35.70
2018-06-16T13:50:07.613Z,35.80
2018-06-16T13:52:36.518Z,35.30
2018-06-16T13:55:08.743Z,35.20
2018-06-16T13:57:37.625Z,35.20
2018-06-16T14:00:06.560Z,34.50
2018-06-16T14:02:35.942Z,34.40
2018-06-16T14:05:04.817Z,33.60
2018-06-16T14:07:34.726Z,32.80
2018-06-16T14:10:04.534Z,33.70
2018-06-16T14:12:35.216Z,33.80
2018-06-16T14:15:05.055Z,34.00
2018-06-16T14:17:34.092Z,33.40
2018-06-16T14:20:03.295Z,33.00
2018-06-16T14:22:32.919Z,34.20
2018-06-16T14:25:06.482Z,34.30
2018-06-16T14:27:35.464Z,33.40
2018-06-16T14:30:04.612Z,32.80
2018-06-16T14:32:33.909Z,33.30
2018-06-16T14:35:03.025Z,32.90
2018-06-16T14:37:31.921Z,33.00
2018-06-16T14:40:00.803Z,32.60
2018-06-16T14:42:29.696Z,32.60
2018-06-16T14:44:58.630Z,31.40
2018-06-16T14:47:27.518Z,31.90
2018-06-16T14:49:56.419Z,32.40
2018-06-16T14:52:25.269Z,32.60
2018-06-16T14:54:54.143Z,31.90
2018-06-16T14:57:23.077Z,30.80
2018-06-16T14:59:51.940Z,31.40
2018-06-16T15:02:20.799Z,32.20
2018-06-16T15:04:49.804Z,31.40
2018-06-16T15:07:18.604Z,32.10
2018-06-16T15:09:47.612Z,32.70
2018-06-16T15:12:16.482Z,31.80
2018-06-16T15:14:45.390Z,31.60
2018-06-16T15:17:14.297Z,31.70
2018-06-16T15:19:43.388Z,31.50
2018-06-16T15:22:12.234Z,32.10
2018-06-16T15:24:41.065Z,33.20
2018-06-16T15:27:09.998Z,34.20
2018-06-16T15:29:38.921Z,34.60
2018-06-16T15:32:08.952Z,34.40
2018-06-16T15:34:37.811Z,34.70
2018-06-16T15:37:07.142Z,35.00
2018-06-16T15:39:36.065Z,34.00
2018-06-16T15:42:04.920Z,34.60
2018-06-16T15:44:33.813Z,34.90
2018-06-16T15:47:02.751Z,34.30
2018-06-16T15:49:31.688Z,33.10
2018-06-16T15:52:00.581Z,32.60
2018-06-16T15:54:29.476Z,32.30
2018-06-16T15:56:58.312Z,31.10
2018-06-16T15:59:28.141Z,32.50
2018-06-16T16:01:58.140Z,33.50
2018-06-16T16:04:27.000Z,33.80
2018-06-16T16:06:56.639Z,33.20
2018-06-16T16:09:25.517Z,32.60
2018-06-16T16:11:54.374Z,33.10
2018-06-16T16:14:23.338Z,33.70
2018-06-16T16:16:52.193Z,33.60
2018-06-16T16:19:21.086Z,32.40
2018-06-16T16:21:50.001Z,32.40
2018-06-16T16:24:19.191Z,32.20
2018-06-16T16:26:48.055Z,33.00
2018-06-16T16:29:17.028Z,33.00
2018-06-16T16:31:46.679Z,31.70
2018-06-16T16:34:15.575Z,31.40
2018-06-16T16:36:44.434Z,32.10
2018-06-16T16:39:13.416Z,31.80
2018-06-16T16:41:42.256Z,31.40
2018-06-16T16:44:11.104Z,31.50
2018-06-16T16:46:39.975Z,31.70
2018-06-16T16:49:09.197Z,32.10
2018-06-16T16:51:38.180Z,32.80
2018-06-16T16:54:07.132Z,33.10
2018-06-16T16:56:35.976Z,33.40
2018-06-16T16:59:05.023Z,33.30
2018-06-16T17:01:33.840Z,33.50
2018-06-16T17:04:02.745Z,33.50
2018-06-16T17:06:31.655Z,33.30
2018-06-16T17:09:00.599Z,33.20
2018-06-16T17:11:29.663Z,33.00
2018-06-16T17:13:58.623Z,33.20
2018-06-16T17:16:27.608Z,33.30
2018-06-16T17:18:56.643Z,33.30
2018-06-16T17:21:25.530Z,33.10
2018-06-16T17:23:54.424Z,32.40
2018-06-16T17:26:23.577Z,32.00
2018-06-16T17:28:52.655Z,30.10
2018-06-16T17:31:21.599Z,30.00
2018-06-16T17:33:50.809Z,30.40
2018-06-16T17:36:19.767Z,29.90
2018-06-16T17:38:48.615Z,30.00
2018-06-16T17:41:17.585Z,29.90
2018-06-16T17:43:46.684Z,30.00
2018-06-16T17:46:15.570Z,30.10
2018-06-16T17:48:44.411Z,30.60
2018-06-16T17:51:13.408Z,31.10
2018-06-16T17:53:42.793Z,31.40
2018-06-16T17:56:11.671Z,31.70
2018-06-16T17:58:40.516Z,31.90
2018-06-16T18:01:09.388Z,32.00
2018-06-16T18:03:41.031Z,31.70
2018-06-16T18:06:09.972Z,32.50
2018-06-16T18:11:07.431Z,32.80
2018-06-16T18:13:36.302Z,32.90
2018-06-16T18:16:05.248Z,33.10
2018-06-16T18:18:34.081Z,33.30
2018-06-16T18:21:02.919Z,33.50
2018-06-16T18:23:31.784Z,33.60
2018-06-16T18:26:00.613Z,34.00
2018-06-16T18:28:29.774Z,33.90
2018-06-16T18:30:58.897Z,34.20
2018-06-16T18:33:27.840Z,34.10
2018-06-16T18:35:57.821Z,34.30
2018-06-16T18:38:26.713Z,34.40
2018-06-16T18:41:03.849Z,34.60
2018-06-16T18:43:35.309Z,35.30
2018-06-16T18:46:07.674Z,34.80
2018-06-16T18:48:38.073Z,34.90
2018-06-16T18:51:13.860Z,35.10
2018-06-16T18:54:01.584Z,35.20
2018-06-16T18:56:39.442Z,35.40
2018-06-16T18:59:08.578Z,35.40
2018-06-16T19:01:37.719Z,35.60
2018-06-16T19:04:12.344Z,35.80
2018-06-16T19:06:41.467Z,36.00
2018-06-16T19:09:12.146Z,36.10
2018-06-16T19:11:45.855Z,36.20
2018-06-16T19:17:14.330Z,36.60
2018-06-16T19:19:44.213Z,36.60
2018-06-16T19:22:13.216Z,36.80
2018-06-16T19:24:42.418Z,37.10
2018-06-16T19:27:11.380Z,37.20
2018-06-16T19:29:44.777Z,37.30
2018-06-16T19:32:13.972Z,37.40
2018-06-16T19:34:43.847Z,37.70
2018-06-16T19:37:15.985Z,37.70
2018-06-16T19:39:46.910Z,37.70
2018-06-16T19:42:31.501Z,37.90
2018-06-16T19:45:19.441Z,38.10
2018-06-16T19:47:50.119Z,38.20
2018-06-16T19:50:20.920Z,38.30
2018-06-16T19:53:27.437Z,38.50
2018-06-16T19:55:58.558Z,38.60
2018-06-16T19:58:46.997Z,38.80
2018-06-16T20:01:16.834Z,38.80
2018-06-16T20:03:46.079Z,38.90
2018-06-16T20:06:15.219Z,39.00
2018-06-16T20:08:44.242Z,39.10
2018-06-16T20:11:13.305Z,39.30
2018-06-16T20:13:43.632Z,39.30
2018-06-16T20:16:12.569Z,39.40
2018-06-16T20:18:41.682Z,39.50
2018-06-16T20:21:10.662Z,39.60
2018-06-16T20:23:39.844Z,39.60
2018-06-16T20:26:08.966Z,39.70
2018-06-16T20:28:38.245Z,39.80
2018-06-16T20:31:07.165Z,39.90
2018-06-16T20:33:36.033Z,39.90
2018-06-16T20:36:05.006Z,40.00
2018-06-16T20:38:33.957Z,40.10
2018-06-16T20:41:02.938Z,40.10
2018-06-16T20:43:31.896Z,40.20
2018-06-16T20:46:00.835Z,40.30
2018-06-16T20:48:29.720Z,40.30
2018-06-16T20:50:58.659Z,40.30
2018-06-16T20:53:27.619Z,40.50
2018-06-16T20:55:56.506Z,40.50
2018-06-16T20:58:25.471Z,40.60
2018-06-16T21:00:54.450Z,40.60
2018-06-16T21:03:23.861Z,40.80
2018-06-16T21:05:52.757Z,40.80
2018-06-16T21:08:21.623Z,40.90
2018-06-16T21:10:50.521Z,40.80
2018-06-16T21:13:19.507Z,40.90
2018-06-16T21:15:48.838Z,41.00
2018-06-16T21:18:17.795Z,41.10
2018-06-16T21:20:46.724Z,41.20
2018-06-16T21:23:15.627Z,41.60
2018-06-16T21:25:44.530Z,41.30
2018-06-16T21:28:14.166Z,41.30
2018-06-16T21:30:43.091Z,41.40
2018-06-16T21:33:11.993Z,41.40
2018-06-16T21:38:09.510Z,41.60
2018-06-16T21:40:38.431Z,41.70
2018-06-16T21:43:07.260Z,41.70
2018-06-16T21:45:36.117Z,41.70
2018-06-16T21:48:05.588Z,41.80
2018-06-16T21:50:34.508Z,41.90
2018-06-16T21:53:04.319Z,42.00
2018-06-16T21:55:33.257Z,42.00
2018-06-16T21:58:03.098Z,42.10
2018-06-16T22:00:33.844Z,42.20
2018-06-16T22:03:04.285Z,42.20
2018-06-16T22:05:34.407Z,42.30
2018-06-16T22:08:09.024Z,42.20
2018-06-16T22:10:38.345Z,42.30
2018-06-16T22:13:07.487Z,42.40
2018-06-16T22:15:37.328Z,42.40
2018-06-16T22:18:06.224Z,43.10
2018-06-16T22:20:35.096Z,42.50
2018-06-16T22:23:04.707Z,42.60
2018-06-16T22:25:33.582Z,42.60
2018-06-16T22:28:02.463Z,42.80
2018-06-16T22:30:31.347Z,42.80
2018-06-16T22:33:00.281Z,42.80
2018-06-16T22:35:29.172Z,42.90
2018-06-16T22:37:58.072Z,42.90
2018-06-16T22:40:26.970Z,43.00
2018-06-16T22:42:55.851Z,43.00
2018-06-16T22:45:24.769Z,43.10
2018-06-16T22:47:53.675Z,43.00
2018-06-16T22:52:51.069Z,43.20
2018-06-16T22:55:19.950Z,43.30
2018-06-16T22:57:48.761Z,43.50
2018-06-16T23:00:21.584Z,43.60
2018-06-16T23:02:50.551Z,43.50
2018-06-16T23:05:19.672Z,43.50
2018-06-16T23:07:48.579Z,43.40
2018-06-16T23:10:17.467Z,43.50
2018-06-16T23:12:46.357Z,43.60
2018-06-16T23:15:15.445Z,43.60
2018-06-16T23:17:44.708Z,43.60
2018-06-16T23:20:13.916Z,43.70
2018-06-16T23:22:44.050Z,43.80
2018-06-16T23:25:13.273Z,43.80
2018-06-16T23:27:42.390Z,43.70
2018-06-16T23:30:11.709Z,43.80
2018-06-16T23:32:40.634Z,43.90
2018-06-16T23:35:09.509Z,43.90
2018-06-16T23:37:38.473Z,44.10
2018-06-16T23:40:07.369Z,44.10
2018-06-16T23:42:36.271Z,44.10
2018-06-16T23:45:05.732Z,44.10
2018-06-16T23:47:34.562Z,44.20
2018-06-16T23:50:03.472Z,44.20
2018-06-16T23:52:32.369Z,44.10
2018-06-16T23:55:01.225Z,44.20
2018-06-16T23:57:30.195Z,44.20
